Time;durP1;ratioP1;P1;durP2;ratioP2;P2;SDS_P1;SDS_P2;PMS_P1;PMS_P2;Temp;Humidity;BMP_temperature;BMP_pressure;BME280_temperature;BME280_humidity;BME280_pressure;Samples;Min_cycle;Max_cycle;Signal;HPM_P1;HPM_P2
2024/02/16 00:00:25;;;;;;;111.80;57.30;;;;;;;-128.00;-1.00;-1.00;102393;1263;1059149;-86
2024/02/16 00:03:12;;;;;;;106.70;57.20;;;;;;;-128.00;-1.00;-1.00;102478;1260;1044452;-80
2024/02/16 00:05:39;;;;;;;107.90;57.70;;;;;;;-128.00;-1.00;-1.00;104322;1260;1004442;-86
2024/02/16 00:08:05;;;;;;;106.70;52.70;;;;;;;-128.00;-1.00;-1.00;102729;1259;1004229;-80
2024/02/16 00:10:32;;;;;;;110.10;57.20;;;;;;;-128.00;-1.00;-1.00;102647;1261;1004737;-86
2024/02/16 00:12:59;;;;;;;114.00;52.90;;;;;;;-128.00;-1.00;-1.00;102667;1259;1004126;-79
2024/02/16 00:15:25;;;;;;;111.80;56.50;;;;;;;-128.00;-1.00;-1.00;102305;1259;1004469;-87
2024/02/16 00:17:52;;;;;;;105.90;59.30;;;;;;;-128.00;-1.00;-1.00;102507;1259;1004643;-87
2024/02/16 00:20:21;;;;;;;114.90;55.40;;;;;;;-128.00;-1.00;-1.00;102458;1259;1003725;-87
2024/02/16 00:22:47;;;;;;;108.80;55.30;;;;;;;-128.00;-1.00;-1.00;102481;1259;1058325;-80
2024/02/16 00:25:15;;;;;;;117.70;55.90;;;;;;;-128.00;-1.00;-1.00;102290;1267;1004948;-86
2024/02/16 00:27:41;;;;;;;113.30;53.10;;;;;;;-128.00;-1.00;-1.00;102430;1259;1005627;-80
2024/02/16 00:30:10;;;;;;;110.80;54.70;;;;;;;-128.00;-1.00;-1.00;103315;1259;1004303;-87
2024/02/16 00:32:36;;;;;;;109.70;52.20;;;;;;;-128.00;-1.00;-1.00;102460;1260;1062245;-87
2024/02/16 00:35:03;;;;;;;112.80;56.20;;;;;;;-128.00;-1.00;-1.00;102449;1259;1004302;-80
2024/02/16 00:37:30;;;;;;;117.70;61.70;;;;;;;-128.00;-1.00;-1.00;102297;1259;1004670;-87
2024/02/16 00:39:56;;;;;;;127.90;56.80;;;;;;;-128.00;-1.00;-1.00;102320;1261;1005200;-80
2024/02/16 00:42:23;;;;;;;118.70;56.60;;;;;;;-128.00;-1.00;-1.00;102274;1263;1005756;-86
2024/02/16 00:44:50;;;;;;;116.40;57.90;;;;;;;-128.00;-1.00;-1.00;102476;1259;1005834;-87
2024/02/16 00:47:17;;;;;;;111.80;53.60;;;;;;;-128.00;-1.00;-1.00;102436;1259;1006137;-80
2024/02/16 00:49:43;;;;;;;122.10;53.40;;;;;;;-128.00;-1.00;-1.00;102392;1261;1004341;-87
2024/02/16 00:52:10;;;;;;;112.80;50.60;;;;;;;-128.00;-1.00;-1.00;102423;1264;1003729;-80
2024/02/16 00:54:37;;;;;;;118.50;52.70;;;;;;;-128.00;-1.00;-1.00;102404;1259;1004777;-80
2024/02/16 00:57:04;;;;;;;110.20;52.10;;;;;;;-128.00;-1.00;-1.00;102402;1266;1004333;-80
2024/02/16 00:59:30;;;;;;;104.50;51.40;;;;;;;-128.00;-1.00;-1.00;102505;1261;1004465;-88
2024/02/16 01:01:57;;;;;;;107.30;50.20;;;;;;;-128.00;-1.00;-1.00;102925;1260;1003867;-80
2024/02/16 01:04:24;;;;;;;110.10;53.80;;;;;;;-128.00;-1.00;-1.00;102989;1259;1004192;-80
2024/02/16 01:06:50;;;;;;;101.70;48.80;;;;;;;-128.00;-1.00;-1.00;102690;1259;1005479;-86
2024/02/16 01:09:17;;;;;;;94.30;46.90;;;;;;;-128.00;-1.00;-1.00;103185;1259;1003840;-80
2024/02/16 01:11:44;;;;;;;104.80;48.00;;;;;;;-128.00;-1.00;-1.00;105143;1259;1005246;-88
2024/02/16 01:14:10;;;;;;;99.20;47.60;;;;;;;-128.00;-1.00;-1.00;105081;1259;1007196;-87
2024/02/16 01:16:37;;;;;;;82.80;43.80;;;;;;;-128.00;-1.00;-1.00;105191;1259;1005037;-87
2024/02/16 01:19:06;;;;;;;86.20;42.40;;;;;;;-128.00;-1.00;-1.00;105200;1262;1004142;-80
2024/02/16 01:21:33;;;;;;;69.90;38.60;;;;;;;-128.00;-1.00;-1.00;103557;1260;1061796;-87
2024/02/16 01:24:00;;;;;;;76.50;38.60;;;;;;;-128.00;-1.00;-1.00;102326;1260;1004865;-80
2024/02/16 01:26:28;;;;;;;78.20;39.40;;;;;;;-128.00;-1.00;-1.00;102414;1259;1005333;-87
2024/02/16 01:28:54;;;;;;;84.80;37.90;;;;;;;-128.00;-1.00;-1.00;102423;1260;1003950;-86
2024/02/16 01:31:21;;;;;;;75.40;36.50;;;;;;;-128.00;-1.00;-1.00;102475;1260;1004780;-86
2024/02/16 01:33:47;;;;;;;71.40;34.50;;;;;;;-128.00;-1.00;-1.00;102419;1261;1004786;-80
2024/02/16 01:36:14;;;;;;;71.60;35.30;;;;;;;-128.00;-1.00;-1.00;102370;1259;1003933;-80
2024/02/16 01:38:40;;;;;;;69.80;35.80;;;;;;;-128.00;-1.00;-1.00;102385;1260;1005390;-80
2024/02/16 01:41:08;;;;;;;71.80;35.90;;;;;;;-128.00;-1.00;-1.00;102105;1260;1005189;-87
2024/02/16 01:43:35;;;;;;;65.40;34.80;;;;;;;-128.00;-1.00;-1.00;102453;1261;1005222;-87
2024/02/16 01:46:01;;;;;;;80.40;37.90;;;;;;;-128.00;-1.00;-1.00;102462;1263;1004804;-87
2024/02/16 01:48:28;;;;;;;67.90;38.30;;;;;;;-128.00;-1.00;-1.00;102370;1259;1005011;-80
2024/02/16 01:50:54;;;;;;;70.00;37.00;;;;;;;-128.00;-1.00;-1.00;102347;1267;1005064;-87
2024/02/16 01:53:21;;;;;;;61.30;32.00;;;;;;;-128.00;-1.00;-1.00;102457;1259;1003994;-80
2024/02/16 01:55:48;;;;;;;60.60;31.70;;;;;;;-128.00;-1.00;-1.00;102348;1259;1005347;-87
2024/02/16 01:58:14;;;;;;;69.20;33.00;;;;;;;-128.00;-1.00;-1.00;102381;1262;1005898;-87
2024/02/16 02:00:41;;;;;;;64.30;33.40;;;;;;;-128.00;-1.00;-1.00;102395;1259;1004360;-87
2024/02/16 02:03:07;;;;;;;61.20;30.60;;;;;;;-128.00;-1.00;-1.00;102441;1259;1005468;-87
2024/02/16 02:05:35;;;;;;;57.90;29.40;;;;;;;-128.00;-1.00;-1.00;102470;1259;1004441;-86
2024/02/16 02:08:11;;;;;;;62.70;33.30;;;;;;;-128.00;-1.00;-1.00;102424;1262;1004391;-80
2024/02/16 02:10:37;;;;;;;77.90;36.50;;;;;;;-128.00;-1.00;-1.00;102396;1259;1064901;-86
2024/02/16 02:13:04;;;;;;;70.60;39.70;;;;;;;-128.00;-1.00;-1.00;102554;1259;1004334;-87
2024/02/16 02:15:31;;;;;;;77.60;39.40;;;;;;;-128.00;-1.00;-1.00;102272;1267;1004262;-80
2024/02/16 02:18:00;;;;;;;71.10;39.80;;;;;;;-128.00;-1.00;-1.00;102259;1259;1004219;-87
2024/02/16 02:20:27;;;;;;;78.20;38.10;;;;;;;-128.00;-1.00;-1.00;102376;1260;1047585;-85
2024/02/16 02:22:53;;;;;;;73.30;35.30;;;;;;;-128.00;-1.00;-1.00;102381;1259;1004361;-86
2024/02/16 02:25:20;;;;;;;66.40;32.80;;;;;;;-128.00;-1.00;-1.00;102375;1267;1004201;-86
2024/02/16 02:27:46;;;;;;;63.20;34.60;;;;;;;-128.00;-1.00;-1.00;102388;1264;1005276;-86
2024/02/16 02:30:13;;;;;;;70.50;33.10;;;;;;;-128.00;-1.00;-1.00;102390;1259;1004987;-86
2024/02/16 02:32:42;;;;;;;76.80;33.40;;;;;;;-128.00;-1.00;-1.00;102435;1259;1004521;-79
2024/02/16 02:35:09;;;;;;;57.30;29.30;;;;;;;-128.00;-1.00;-1.00;102413;1259;1063841;-87
2024/02/16 02:37:35;;;;;;;49.20;24.90;;;;;;;-128.00;-1.00;-1.00;102391;1260;1005129;-79
2024/02/16 02:40:05;;;;;;;49.50;26.60;;;;;;;-128.00;-1.00;-1.00;102374;1259;1004435;-86
2024/02/16 02:42:32;;;;;;;45.40;24.10;;;;;;;-128.00;-1.00;-1.00;102451;1259;1046430;-80
2024/02/16 02:44:58;;;;;;;58.80;27.80;;;;;;;-128.00;-1.00;-1.00;102395;1259;1004578;-80
2024/02/16 02:47:25;;;;;;;61.70;33.30;;;;;;;-128.00;-1.00;-1.00;102343;1259;1003904;-86
2024/02/16 02:49:51;;;;;;;62.70;33.60;;;;;;;-128.00;-1.00;-1.00;102405;1262;1003578;-79
2024/02/16 02:52:18;;;;;;;65.60;32.90;;;;;;;-128.00;-1.00;-1.00;102386;1259;1005026;-80
2024/02/16 02:54:45;;;;;;;68.20;34.20;;;;;;;-128.00;-1.00;-1.00;102458;1259;1004562;-86
2024/02/16 02:57:11;;;;;;;69.40;33.10;;;;;;;-128.00;-1.00;-1.00;102514;1259;1004166;-86
2024/02/16 02:59:38;;;;;;;74.00;33.60;;;;;;;-128.00;-1.00;-1.00;102460;1259;1005470;-79
2024/02/16 03:02:05;;;;;;;75.30;33.80;;;;;;;-128.00;-1.00;-1.00;102325;1259;1004637;-87
2024/02/16 03:04:31;;;;;;;67.50;33.20;;;;;;;-128.00;-1.00;-1.00;102440;1259;1005485;-86
2024/02/16 03:06:58;;;;;;;67.30;34.70;;;;;;;-128.00;-1.00;-1.00;102475;1260;1004836;-86
2024/02/16 03:09:24;;;;;;;67.40;34.10;;;;;;;-128.00;-1.00;-1.00;102369;1259;1005264;-86
2024/02/16 03:11:51;;;;;;;129.70;41.10;;;;;;;-128.00;-1.00;-1.00;102478;1263;1005917;-86
2024/02/16 03:14:17;;;;;;;70.40;32.40;;;;;;;-128.00;-1.00;-1.00;102546;1263;1005137;-86
2024/02/16 03:16:44;;;;;;;66.80;32.90;;;;;;;-128.00;-1.00;-1.00;102517;1259;1004762;-86
2024/02/16 03:19:10;;;;;;;64.10;29.60;;;;;;;-128.00;-1.00;-1.00;102496;1260;1004441;-84
2024/02/16 03:21:37;;;;;;;59.00;30.00;;;;;;;-128.00;-1.00;-1.00;102600;1259;1004207;-79
2024/02/16 03:24:04;;;;;;;64.70;30.70;;;;;;;-128.00;-1.00;-1.00;102435;1266;1005019;-86
2024/02/16 03:26:32;;;;;;;73.60;36.20;;;;;;;-128.00;-1.00;-1.00;102621;1259;1004447;-86
2024/02/16 03:28:58;;;;;;;72.20;34.70;;;;;;;-128.00;-1.00;-1.00;102567;1259;1004908;-86
2024/02/16 03:31:25;;;;;;;71.90;34.20;;;;;;;-128.00;-1.00;-1.00;102541;1259;1004893;-80
2024/02/16 03:33:51;;;;;;;69.00;32.60;;;;;;;-128.00;-1.00;-1.00;102534;1263;1004074;-80
2024/02/16 03:36:18;;;;;;;67.80;32.60;;;;;;;-128.00;-1.00;-1.00;102445;1259;1004265;-86
2024/02/16 03:38:46;;;;;;;60.70;29.40;;;;;;;-128.00;-1.00;-1.00;102429;1259;1005146;-86
2024/02/16 03:41:14;;;;;;;69.80;32.60;;;;;;;-128.00;-1.00;-1.00;102403;1260;1004125;-86
2024/02/16 03:43:41;;;;;;;63.40;30.90;;;;;;;-128.00;-1.00;-1.00;102392;1260;1005511;-78
2024/02/16 03:46:08;;;;;;;67.70;32.30;;;;;;;-128.00;-1.00;-1.00;102072;1259;1004725;-86
2024/02/16 03:48:34;;;;;;;64.30;32.00;;;;;;;-128.00;-1.00;-1.00;102507;1260;1003856;-81
2024/02/16 03:51:02;;;;;;;60.10;28.10;;;;;;;-128.00;-1.00;-1.00;102525;1259;1005665;-88
2024/02/16 03:53:29;;;;;;;60.20;29.80;;;;;;;-128.00;-1.00;-1.00;102507;1263;1003890;-81
2024/02/16 03:55:56;;;;;;;61.90;28.10;;;;;;;-128.00;-1.00;-1.00;102336;1258;1004472;-88
2024/02/16 03:58:22;;;;;;;65.30;31.00;;;;;;;-128.00;-1.00;-1.00;102563;1259;1004106;-81
2024/02/16 04:00:49;;;;;;;66.60;31.90;;;;;;;-128.00;-1.00;-1.00;102526;1259;1004767;-88
2024/02/16 04:03:16;;;;;;;65.50;32.50;;;;;;;-128.00;-1.00;-1.00;102519;1259;1005117;-88
2024/02/16 04:05:43;;;;;;;71.00;31.40;;;;;;;-128.00;-1.00;-1.00;102573;1259;1004536;-81
2024/02/16 04:08:10;;;;;;;66.20;32.60;;;;;;;-128.00;-1.00;-1.00;102355;1260;1004004;-84
2024/02/16 04:10:36;;;;;;;59.10;28.60;;;;;;;-128.00;-1.00;-1.00;102389;1259;1004941;-81
2024/02/16 04:13:03;;;;;;;58.80;29.30;;;;;;;-128.00;-1.00;-1.00;102444;1260;1005058;-79
2024/02/16 04:15:29;;;;;;;52.80;28.00;;;;;;;-128.00;-1.00;-1.00;102047;1259;1003676;-80
2024/02/16 04:17:56;;;;;;;66.20;26.30;;;;;;;-128.00;-1.00;-1.00;102416;1259;1004593;-88
2024/02/16 04:20:22;;;;;;;47.10;24.50;;;;;;;-128.00;-1.00;-1.00;102518;1259;1004607;-82
2024/02/16 04:22:49;;;;;;;53.50;25.20;;;;;;;-128.00;-1.00;-1.00;102523;1263;1005599;-88
2024/02/16 04:25:16;;;;;;;45.80;22.60;;;;;;;-128.00;-1.00;-1.00;102459;1258;1005652;-88
2024/02/16 04:27:42;;;;;;;46.60;21.80;;;;;;;-128.00;-1.00;-1.00;102506;1259;1004068;-81
2024/02/16 04:30:09;;;;;;;42.40;22.80;;;;;;;-128.00;-1.00;-1.00;102452;1264;1004537;-88
2024/02/16 04:32:35;;;;;;;48.20;22.50;;;;;;;-128.00;-1.00;-1.00;102347;1259;1004572;-82
2024/02/16 04:35:02;;;;;;;45.20;22.40;;;;;;;-128.00;-1.00;-1.00;103865;1259;1004481;-79
2024/02/16 04:37:29;;;;;;;49.50;22.90;;;;;;;-128.00;-1.00;-1.00;105108;1259;1004946;-86
2024/02/16 04:39:55;;;;;;;46.30;22.80;;;;;;;-128.00;-1.00;-1.00;102490;1259;1004272;-89
2024/02/16 04:42:22;;;;;;;46.20;22.70;;;;;;;-128.00;-1.00;-1.00;102542;1259;1004994;-79
2024/02/16 04:44:49;;;;;;;50.10;25.60;;;;;;;-128.00;-1.00;-1.00;102394;1259;1004395;-85
2024/02/16 04:47:15;;;;;;;55.10;26.60;;;;;;;-128.00;-1.00;-1.00;102526;1259;1004457;-86
2024/02/16 04:49:41;;;;;;;53.00;26.20;;;;;;;-128.00;-1.00;-1.00;102523;1259;1004238;-79
2024/02/16 04:52:08;;;;;;;58.40;27.10;;;;;;;-128.00;-1.00;-1.00;102390;1260;1004597;-88
2024/02/16 04:54:36;;;;;;;54.50;26.50;;;;;;;-128.00;-1.00;-1.00;102520;1259;1003689;-81
2024/02/16 04:57:03;;;;;;;48.40;27.10;;;;;;;-128.00;-1.00;-1.00;102430;1259;1004332;-88
2024/02/16 04:59:29;;;;;;;54.60;28.20;;;;;;;-128.00;-1.00;-1.00;102528;1263;1004833;-89
2024/02/16 05:01:56;;;;;;;56.30;27.30;;;;;;;-128.00;-1.00;-1.00;102547;1259;1005193;-81
2024/02/16 05:04:22;;;;;;;49.00;25.00;;;;;;;-128.00;-1.00;-1.00;102414;1259;1005070;-81
2024/02/16 05:06:51;;;;;;;48.40;26.80;;;;;;;-128.00;-1.00;-1.00;102499;1259;1005341;-79
2024/02/16 05:09:18;;;;;;;48.40;23.90;;;;;;;-128.00;-1.00;-1.00;102540;1259;1046065;-86
2024/02/16 05:11:45;;;;;;;48.20;23.50;;;;;;;-128.00;-1.00;-1.00;102399;1260;1005008;-80
2024/02/16 05:14:12;;;;;;;53.50;26.20;;;;;;;-128.00;-1.00;-1.00;105132;1259;1003897;-86
2024/02/16 05:16:43;;;;;;;39.10;20.40;;;;;;;-128.00;-1.00;-1.00;105199;1259;1004219;-87
2024/02/16 05:19:09;;;;;;;41.80;21.20;;;;;;;-128.00;-1.00;-1.00;103090;1259;1059156;-86
2024/02/16 05:21:36;;;;;;;39.00;20.70;;;;;;;-128.00;-1.00;-1.00;102537;1259;1005568;-86
2024/02/16 05:24:03;;;;;;;37.20;21.60;;;;;;;-128.00;-1.00;-1.00;104765;1259;1004317;-87
2024/02/16 05:26:29;;;;;;;33.80;19.30;;;;;;;-128.00;-1.00;-1.00;105191;1259;1004020;-80
2024/02/16 05:28:56;;;;;;;36.30;19.10;;;;;;;-128.00;-1.00;-1.00;102691;1259;1005010;-79
2024/02/16 05:31:22;;;;;;;31.50;17.70;;;;;;;-128.00;-1.00;-1.00;102038;1264;1004898;-86
2024/02/16 05:33:49;;;;;;;35.00;20.30;;;;;;;-128.00;-1.00;-1.00;102536;1259;1004426;-86
2024/02/16 05:36:18;;;;;;;47.90;21.70;;;;;;;-128.00;-1.00;-1.00;102563;1261;1003628;-80
2024/02/16 05:38:44;;;;;;;40.40;20.30;;;;;;;-128.00;-1.00;-1.00;102470;1259;1062784;-87
2024/02/16 05:41:11;;;;;;;46.60;23.80;;;;;;;-128.00;-1.00;-1.00;102529;1264;1004193;-81
2024/02/16 05:43:38;;;;;;;48.70;24.10;;;;;;;-128.00;-1.00;-1.00;102415;1259;1004436;-80
2024/02/16 05:46:07;;;;;;;49.20;23.10;;;;;;;-128.00;-1.00;-1.00;104896;1259;1004954;-81
2024/02/16 05:48:37;;;;;;;51.20;28.70;;;;;;;-128.00;-1.00;-1.00;105197;1259;1046753;-81
2024/02/16 05:51:05;;;;;;;76.20;23.20;;;;;;;-128.00;-1.00;-1.00;105208;1259;1061874;-88
2024/02/16 05:53:35;;;;;;;33.00;18.90;;;;;;;-128.00;-1.00;-1.00;103032;1264;1004937;-80
2024/02/16 05:56:01;;;;;;;35.40;19.90;;;;;;;-128.00;-1.00;-1.00;102439;1259;1059669;-87
2024/02/16 05:58:29;;;;;;;40.90;21.90;;;;;;;-128.00;-1.00;-1.00;102495;1259;1004570;-81
2024/02/16 06:00:55;;;;;;;38.70;18.60;;;;;;;-128.00;-1.00;-1.00;102371;1267;1004212;-80
2024/02/16 06:03:22;;;;;;;33.60;17.30;;;;;;;-128.00;-1.00;-1.00;102489;1259;1004976;-87
2024/02/16 06:05:48;;;;;;;98.20;21.40;;;;;;;-128.00;-1.00;-1.00;102538;1263;1004111;-87
2024/02/16 06:08:19;;;;;;;44.70;21.70;;;;;;;-128.00;-1.00;-1.00;102519;1259;1003693;-86
2024/02/16 06:10:51;;;;;;;44.10;21.40;;;;;;;-128.00;-1.00;-1.00;102814;1260;1046033;-80
2024/02/16 06:13:18;;;;;;;46.50;22.70;;;;;;;-128.00;-1.00;-1.00;102445;1260;1046706;-87
2024/02/16 06:15:44;;;;;;;44.10;21.80;;;;;;;-128.00;-1.00;-1.00;102414;1259;1004645;-87
2024/02/16 06:18:11;;;;;;;40.90;21.70;;;;;;;-128.00;-1.00;-1.00;102526;1260;1005002;-80
2024/02/16 06:20:37;;;;;;;57.20;23.20;;;;;;;-128.00;-1.00;-1.00;102499;1259;1003754;-87
2024/02/16 06:23:04;;;;;;;46.00;24.70;;;;;;;-128.00;-1.00;-1.00;102477;1265;1003796;-88
2024/02/16 06:25:30;;;;;;;48.90;23.80;;;;;;;-128.00;-1.00;-1.00;102497;1259;1003790;-87
2024/02/16 06:27:57;;;;;;;49.90;23.60;;;;;;;-128.00;-1.00;-1.00;102405;1259;1004918;-88
2024/02/16 06:30:23;;;;;;;39.90;21.90;;;;;;;-128.00;-1.00;-1.00;102532;1265;1004008;-87
2024/02/16 06:32:50;;;;;;;44.50;24.70;;;;;;;-128.00;-1.00;-1.00;102528;1260;1003745;-80
2024/02/16 06:35:17;;;;;;;43.40;21.90;;;;;;;-128.00;-1.00;-1.00;102488;1262;1004087;-87
2024/02/16 06:37:44;;;;;;;44.50;21.20;;;;;;;-128.00;-1.00;-1.00;102549;1260;1004216;-80
2024/02/16 06:40:10;;;;;;;36.40;20.70;;;;;;;-128.00;-1.00;-1.00;102457;1264;1005034;-86
2024/02/16 06:42:38;;;;;;;45.10;22.10;;;;;;;-128.00;-1.00;-1.00;102730;1259;1004453;-81
2024/02/16 06:45:05;;;;;;;39.60;21.00;;;;;;;-128.00;-1.00;-1.00;102455;1260;1005359;-80
2024/02/16 06:47:32;;;;;;;41.30;21.50;;;;;;;-128.00;-1.00;-1.00;102412;1259;1005538;-83
2024/02/16 06:49:58;;;;;;;48.60;22.90;;;;;;;-128.00;-1.00;-1.00;102439;1259;1004920;-80
2024/02/16 06:52:25;;;;;;;47.50;25.80;;;;;;;-128.00;-1.00;-1.00;102598;1259;1004613;-87
2024/02/16 06:54:53;;;;;;;51.00;29.90;;;;;;;-128.00;-1.00;-1.00;102418;1259;1004943;-87
2024/02/16 06:57:22;;;;;;;52.00;30.90;;;;;;;-128.00;-1.00;-1.00;102514;1264;1004840;-80
2024/02/16 06:59:49;;;;;;;51.60;28.50;;;;;;;-128.00;-1.00;-1.00;102347;1259;1046129;-86
2024/02/16 07:02:17;;;;;;;49.10;29.20;;;;;;;-128.00;-1.00;-1.00;102503;1259;1004687;-87
2024/02/16 07:04:45;;;;;;;55.80;29.90;;;;;;;-128.00;-1.00;-1.00;102665;1259;1065161;-81
2024/02/16 07:07:12;;;;;;;54.40;31.80;;;;;;;-128.00;-1.00;-1.00;102724;1259;1003905;-87
2024/02/16 07:09:39;;;;;;;58.80;32.10;;;;;;;-128.00;-1.00;-1.00;102719;1259;1004552;-87
2024/02/16 07:12:06;;;;;;;54.00;27.40;;;;;;;-128.00;-1.00;-1.00;102672;1259;1004687;-81
2024/02/16 07:14:33;;;;;;;61.70;32.20;;;;;;;-128.00;-1.00;-1.00;102734;1259;1005032;-80
2024/02/16 07:16:59;;;;;;;55.20;31.10;;;;;;;-128.00;-1.00;-1.00;102549;1259;1005372;-87
2024/02/16 07:19:26;;;;;;;52.00;32.20;;;;;;;-128.00;-1.00;-1.00;102995;1264;1004074;-86
2024/02/16 07:21:52;;;;;;;65.70;35.90;;;;;;;-128.00;-1.00;-1.00;102873;1259;1004229;-81
2024/02/16 07:24:19;;;;;;;54.90;35.00;;;;;;;-128.00;-1.00;-1.00;102863;1259;1004558;-81
2024/02/16 07:26:45;;;;;;;70.50;38.60;;;;;;;-128.00;-1.00;-1.00;102917;1262;1004782;-87
2024/02/16 07:29:16;;;;;;;57.40;35.00;;;;;;;-128.00;-1.00;-1.00;102980;1259;1004236;-80
2024/02/16 07:31:42;;;;;;;67.00;38.50;;;;;;;-128.00;-1.00;-1.00;102860;1259;1058569;-87
2024/02/16 07:34:11;;;;;;;55.90;33.90;;;;;;;-128.00;-1.00;-1.00;103558;1260;1003987;-86
2024/02/16 07:36:37;;;;;;;52.10;33.00;;;;;;;-128.00;-1.00;-1.00;102574;1267;1005174;-87
2024/02/16 07:39:04;;;;;;;56.30;34.80;;;;;;;-128.00;-1.00;-1.00;102792;1265;1003539;-80
2024/02/16 07:41:31;;;;;;;57.90;35.50;;;;;;;-128.00;-1.00;-1.00;102787;1260;1004432;-81
2024/02/16 07:43:57;;;;;;;55.30;38.20;;;;;;;-128.00;-1.00;-1.00;102685;1259;1004440;-80
2024/02/16 07:46:24;;;;;;;68.10;40.40;;;;;;;-128.00;-1.00;-1.00;102687;1260;1004468;-81
2024/02/16 07:48:50;;;;;;;73.10;41.00;;;;;;;-128.00;-1.00;-1.00;102771;1259;1003974;-87
2024/02/16 07:51:17;;;;;;;68.90;40.60;;;;;;;-128.00;-1.00;-1.00;102871;1263;1004956;-80
2024/02/16 07:53:46;;;;;;;65.40;36.60;;;;;;;-128.00;-1.00;-1.00;102816;1263;1004658;-80
2024/02/16 07:56:12;;;;;;;;;;;;;;;-128.00;-1.00;-1.00;102681;1259;1059712;-87
2024/02/16 07:58:42;;;;;;;53.30;34.20;;;;;;;-128.00;-1.00;-1.00;102857;1259;1004105;-87
2024/02/16 08:01:08;;;;;;;57.80;33.10;;;;;;;-128.00;-1.00;-1.00;102864;1260;1044703;-87
2024/02/16 08:03:35;;;;;;;53.90;29.20;;;;;;;-128.00;-1.00;-1.00;102732;1259;1004729;-87
2024/02/16 08:06:01;;;;;;;50.20;30.90;;;;;;;-128.00;-1.00;-1.00;102660;1260;1004264;-88
2024/02/16 08:08:29;;;;;;;51.80;32.80;;;;;;;-128.00;-1.00;-1.00;102832;1263;1004699;-87
2024/02/16 08:10:55;;;;;;;52.40;31.30;;;;;;;-128.00;-1.00;-1.00;102920;1259;1004415;-81
2024/02/16 08:13:22;;;;;;;54.70;32.20;;;;;;;-128.00;-1.00;-1.00;102558;1259;1004127;-87
2024/02/16 08:15:51;;;;;;;50.80;32.60;;;;;;;-128.00;-1.00;-1.00;102776;1259;1004785;-87
2024/02/16 08:18:18;;;;;;;;;;;;;;;-128.00;-1.00;-1.00;102730;1259;1062164;-86
2024/02/16 08:20:45;;;;;;;47.00;29.40;;;;;;;-128.00;-1.00;-1.00;102870;1259;1004849;-81
2024/02/16 08:23:11;;;;;;;45.40;26.40;;;;;;;-128.00;-1.00;-1.00;102591;1266;1004391;-87
2024/02/16 08:25:38;;;;;;;47.00;29.10;;;;;;;-128.00;-1.00;-1.00;102767;1259;1004775;-80
2024/02/16 08:28:04;;;;;;;49.40;29.10;;;;;;;-128.00;-1.00;-1.00;102746;1259;1004243;-81
2024/02/16 08:30:31;;;;;;;50.20;31.60;;;;;;;-128.00;-1.00;-1.00;102924;1260;1005251;-80
2024/02/16 08:32:58;;;;;;;51.70;29.80;;;;;;;-128.00;-1.00;-1.00;102726;1260;1004074;-81
2024/02/16 08:35:25;;;;;;;41.90;26.20;;;;;;;-128.00;-1.00;-1.00;102687;1259;1005640;-80
2024/02/16 08:37:51;;;;;;;42.70;25.00;;;;;;;-128.00;-1.00;-1.00;102613;1260;1005252;-87
2024/02/16 08:40:18;;;;;;;46.20;26.70;;;;;;;-128.00;-1.00;-1.00;102948;1258;1005161;-81
2024/02/16 08:42:44;;;;;;;32.50;20.60;;;;;;;-128.00;-1.00;-1.00;102723;1259;1004702;-87
2024/02/16 08:45:12;;;;;;;46.60;25.80;;;;;;;-128.00;-1.00;-1.00;102779;1264;1003810;-87
2024/02/16 08:47:39;;;;;;;41.30;24.50;;;;;;;-128.00;-1.00;-1.00;102995;1259;1004804;-87
2024/02/16 08:50:06;;;;;;;35.60;19.00;;;;;;;-128.00;-1.00;-1.00;102952;1263;1003693;-86
2024/02/16 08:52:33;;;;;;;40.60;21.40;;;;;;;-128.00;-1.00;-1.00;102920;1263;1004388;-87
2024/02/16 08:54:59;;;;;;;43.90;24.70;;;;;;;-128.00;-1.00;-1.00;102776;1259;1004589;-87
2024/02/16 08:57:27;;;;;;;46.30;29.80;;;;;;;-128.00;-1.00;-1.00;102807;1260;1004552;-80
2024/02/16 08:59:56;;;;;;;32.20;21.00;;;;;;;-128.00;-1.00;-1.00;102800;1259;1005680;-87
2024/02/16 09:02:22;;;;;;;30.10;20.20;;;;;;;-128.00;-1.00;-1.00;102668;1263;1046426;-86
2024/02/16 09:04:49;;;;;;;30.40;19.10;;;;;;;-128.00;-1.00;-1.00;102767;1265;1004419;-80
2024/02/16 09:07:15;;;;;;;25.00;16.70;;;;;;;-128.00;-1.00;-1.00;102751;1263;1003990;-80
2024/02/16 09:09:42;;;;;;;25.70;16.00;;;;;;;-128.00;-1.00;-1.00;102862;1261;1004333;-80
2024/02/16 09:12:08;;;;;;;31.00;16.60;;;;;;;-128.00;-1.00;-1.00;102594;1260;1005501;-86
2024/02/16 09:14:35;;;;;;;30.40;15.90;;;;;;;-128.00;-1.00;-1.00;102673;1260;1004951;-80
2024/02/16 09:17:01;;;;;;;30.20;14.70;;;;;;;-128.00;-1.00;-1.00;102667;1259;1004147;-86
2024/02/16 09:19:28;;;;;;;22.70;14.60;;;;;;;-128.00;-1.00;-1.00;102834;1259;1004144;-80
2024/02/16 09:21:54;;;;;;;26.90;14.60;;;;;;;-128.00;-1.00;-1.00;102737;1264;1005179;-80
2024/02/16 09:24:21;;;;;;;25.20;14.50;;;;;;;-128.00;-1.00;-1.00;102960;1263;1004715;-80
2024/02/16 09:26:48;;;;;;;24.70;12.90;;;;;;;-128.00;-1.00;-1.00;102775;1263;1005247;-80
2024/02/16 09:29:14;;;;;;;22.90;12.90;;;;;;;-128.00;-1.00;-1.00;102647;1265;1003703;-86
2024/02/16 09:31:41;;;;;;;20.20;12.80;;;;;;;-128.00;-1.00;-1.00;102818;1259;1004768;-87
2024/02/16 09:34:07;;;;;;;26.50;14.20;;;;;;;-128.00;-1.00;-1.00;103156;1262;1004592;-78
2024/02/16 09:36:36;;;;;;;21.80;13.40;;;;;;;-128.00;-1.00;-1.00;102742;1259;1004555;-78
2024/02/16 09:39:02;;;;;;;21.40;12.10;;;;;;;-128.00;-1.00;-1.00;102256;1265;1005073;-78
2024/02/16 09:41:29;;;;;;;17.80;11.60;;;;;;;-128.00;-1.00;-1.00;102351;1268;1004804;-78
2024/02/16 09:43:55;;;;;;;25.60;11.90;;;;;;;-128.00;-1.00;-1.00;102054;1260;1003876;-85
2024/02/16 09:46:22;;;;;;;18.50;11.20;;;;;;;-128.00;-1.00;-1.00;102679;1259;1004397;-78
2024/02/16 09:48:48;;;;;;;11.90;8.20;;;;;;;-128.00;-1.00;-1.00;102167;1260;1004822;-84
2024/02/16 09:51:16;;;;;;;14.30;7.50;;;;;;;-128.00;-1.00;-1.00;102767;1260;1003896;-87
2024/02/16 09:53:42;;;;;;;13.50;8.80;;;;;;;-128.00;-1.00;-1.00;102737;1259;1003879;-81
2024/02/16 09:56:09;;;;;;;13.80;7.90;;;;;;;-128.00;-1.00;-1.00;102688;1259;1004612;-80
2024/02/16 09:58:35;;;;;;;16.00;8.50;;;;;;;-128.00;-1.00;-1.00;102801;1259;1004031;-87
2024/02/16 10:01:02;;;;;;;11.70;6.30;;;;;;;-128.00;-1.00;-1.00;102841;1259;1005240;-80
2024/02/16 10:03:32;;;;;;;13.90;6.60;;;;;;;-128.00;-1.00;-1.00;102850;1259;1006077;-84
2024/02/16 10:06:11;;;;;;;9.90;5.70;;;;;;;-128.00;-1.00;-1.00;102617;1266;1046818;-78
2024/02/16 10:08:51;;;;;;;;;;;;;;;-128.00;-1.00;-1.00;102122;1259;1062496;-78
2024/02/16 10:11:18;;;;;;;9.40;5.10;;;;;;;-128.00;-1.00;-1.00;102758;1262;1059320;-84
2024/02/16 10:13:58;;;;;;;7.70;5.00;;;;;;;-128.00;-1.00;-1.00;102777;1259;1003658;-78
2024/02/16 10:16:24;;;;;;;13.70;4.70;;;;;;;-128.00;-1.00;-1.00;102174;1263;1047179;-84
2024/02/16 10:18:51;;;;;;;10.20;4.70;;;;;;;-128.00;-1.00;-1.00;102783;1260;1005126;-84
2024/02/16 10:21:27;;;;;;;9.90;5.60;;;;;;;-128.00;-1.00;-1.00;102962;1260;1004479;-85
2024/02/16 10:24:02;;;;;;;10.80;6.00;;;;;;;-128.00;-1.00;-1.00;102814;1263;1058158;-79
2024/02/16 10:26:29;;;;;;;14.00;7.60;;;;;;;-128.00;-1.00;-1.00;102174;1260;1063374;-78
2024/02/16 10:28:57;;;;;;;8.00;5.90;;;;;;;-128.00;-1.00;-1.00;102140;1265;1005366;-84
2024/02/16 10:31:28;;;;;;;7.00;4.40;;;;;;;-128.00;-1.00;-1.00;102868;1260;1003997;-79
2024/02/16 10:34:01;;;;;;;10.80;5.30;;;;;;;-128.00;-1.00;-1.00;102203;1264;1064299;-78
2024/02/16 10:36:28;;;;;;;7.50;4.00;;;;;;;-128.00;-1.00;-1.00;102159;1265;1058899;-84
2024/02/16 10:38:56;;;;;;;11.60;4.70;;;;;;;-128.00;-1.00;-1.00;102669;1260;1004682;-85
2024/02/16 10:41:30;;;;;;;11.90;4.40;;;;;;;-128.00;-1.00;-1.00;102981;1264;1004473;-78
2024/02/16 10:43:57;;;;;;;6.00;3.90;;;;;;;-128.00;-1.00;-1.00;102181;1259;1047655;-84
2024/02/16 10:46:24;;;;;;;18.30;3.80;;;;;;;-128.00;-1.00;-1.00;102796;1263;1005455;-78
2024/02/16 10:48:51;;;;;;;4.50;3.10;;;;;;;-128.00;-1.00;-1.00;102112;1265;1004744;-78
2024/02/16 10:51:42;;;;;;;9.60;4.40;;;;;;;-128.00;-1.00;-1.00;102945;1260;1003643;-85
2024/02/16 10:54:10;;;;;;;6.30;4.00;;;;;;;-128.00;-1.00;-1.00;102875;1265;1051302;-79
2024/02/16 10:56:37;;;;;;;6.30;3.60;;;;;;;-128.00;-1.00;-1.00;102323;1260;1004312;-79
2024/02/16 10:59:10;;;;;;;7.60;4.70;;;;;;;-128.00;-1.00;-1.00;103577;1260;1003966;-85
2024/02/16 11:01:42;;;;;;;7.30;4.00;;;;;;;-128.00;-1.00;-1.00;105088;1259;1057456;-80